createdAt,value
2019-05-30T00:01:34.342Z,21.04
2019-05-30T00:04:04.928Z,21.01
2019-05-30T00:06:34.438Z,20.99
2019-05-30T00:09:05.315Z,20.94
2019-05-30T00:11:34.853Z,20.91
2019-05-30T00:14:04.964Z,20.92
2019-05-30T00:16:34.512Z,20.94
2019-05-30T00:19:05.039Z,20.95
2019-05-30T00:21:34.549Z,21.03
2019-05-30T00:24:04.294Z,21.08
2019-05-30T00:26:33.640Z,21.14
2019-05-30T00:29:03.046Z,21.13
2019-05-30T00:31:32.881Z,21.16
2019-05-30T00:34:02.560Z,21.18
2019-05-30T00:36:33.205Z,21.19
2019-05-30T00:39:04.325Z,21.18
2019-05-30T00:41:33.699Z,21.14
2019-05-30T00:44:04.353Z,21.11
2019-05-30T00:46:34.074Z,21.04
2019-05-30T00:49:04.545Z,21.00
2019-05-30T00:51:34.085Z,20.94
2019-05-30T00:54:04.727Z,20.95
2019-05-30T00:56:34.277Z,20.90
2019-05-30T00:59:04.923Z,20.86
2019-05-30T01:01:34.446Z,20.86
2019-05-30T01:04:04.926Z,20.86
2019-05-30T01:06:34.503Z,20.86
2019-05-30T01:09:05.468Z,20.84
2019-05-30T01:11:34.921Z,20.83
2019-05-30T01:14:05.429Z,20.80
2019-05-30T01:16:35.031Z,20.80
2019-05-30T01:19:05.269Z,20.78
2019-05-30T01:21:34.941Z,20.76
2019-05-30T01:24:05.647Z,20.76
2019-05-30T01:26:35.280Z,20.77
2019-05-30T01:29:05.555Z,20.76
2019-05-30T01:31:35.252Z,20.76
2019-05-30T01:34:05.870Z,20.69
2019-05-30T01:37:29.011Z,20.67
2019-05-30T01:39:59.647Z,20.63
2019-05-30T01:42:29.458Z,20.57
2019-05-30T01:45:00.214Z,20.55
2019-05-30T01:47:29.765Z,20.54
2019-05-30T01:50:00.305Z,20.54
2019-05-30T01:52:30.027Z,20.54
2019-05-30T01:55:00.473Z,20.53
2019-05-30T01:57:29.843Z,20.53
2019-05-30T02:00:00.690Z,20.50
2019-05-30T02:02:30.207Z,20.51
2019-05-30T02:05:01.086Z,20.49
2019-05-30T02:07:30.756Z,20.47
2019-05-30T02:10:01.114Z,20.43
2019-05-30T02:15:35.580Z,20.48
2019-05-30T02:18:05.768Z,20.48
2019-05-30T02:20:35.437Z,20.51
2019-05-30T02:23:06.107Z,20.54
2019-05-30T02:25:36.085Z,20.59
2019-05-30T02:28:06.271Z,20.66
2019-05-30T02:30:35.847Z,20.66
2019-05-30T02:33:06.814Z,20.67
2019-05-30T02:35:36.398Z,20.71
2019-05-30T02:38:07.353Z,20.71
2019-05-30T02:40:37.391Z,20.71
2019-05-30T02:43:07.565Z,20.64
2019-05-30T02:45:37.615Z,20.61
2019-05-30T02:48:07.469Z,20.64
2019-05-30T02:50:36.995Z,20.65
2019-05-30T02:53:08.174Z,20.64
2019-05-30T02:55:37.682Z,20.63
2019-05-30T02:58:08.617Z,20.67
2019-05-30T03:00:38.466Z,20.65
2019-05-30T03:03:09.764Z,20.64
2019-05-30T03:05:39.687Z,20.62
2019-05-30T03:08:12.165Z,20.57
2019-05-30T03:10:41.573Z,20.51
2019-05-30T03:13:12.868Z,20.62
2019-05-30T03:15:42.818Z,20.72
2019-05-30T03:18:14.667Z,20.91
2019-05-30T03:20:43.842Z,21.06
2019-05-30T03:23:14.722Z,21.19
2019-05-30T03:25:44.631Z,21.33
2019-05-30T03:28:14.107Z,21.44
2019-05-30T03:30:45.556Z,21.63
2019-05-30T03:33:34.764Z,21.74
2019-05-30T03:35:46.696Z,21.88
2019-05-30T03:38:16.204Z,22.04
2019-05-30T03:40:45.851Z,22.21
2019-05-30T03:43:16.067Z,22.37
2019-05-30T03:45:45.926Z,22.51
2019-05-30T03:48:18.923Z,22.61
2019-05-30T03:50:51.828Z,22.71
2019-05-30T03:53:23.028Z,22.89
2019-05-30T03:55:57.736Z,23.01
2019-05-30T03:58:37.318Z,23.18
2019-05-30T04:01:10.185Z,23.29
2019-05-30T04:03:58.206Z,23.31
2019-05-30T04:06:31.694Z,23.44
2019-05-30T04:09:07.325Z,23.48
2019-05-30T04:11:51.462Z,23.56
2019-05-30T04:14:25.117Z,23.72
2019-05-30T04:16:54.456Z,23.71
2019-05-30T04:19:23.935Z,23.95
2019-05-30T04:21:53.556Z,24.05
2019-05-30T04:24:22.921Z,24.23
2019-05-30T04:26:52.441Z,24.32
2019-05-30T04:29:21.960Z,24.51
2019-05-30T04:31:51.434Z,24.79
2019-05-30T04:34:20.801Z,24.94
2019-05-30T04:36:53.167Z,24.98
2019-05-30T04:39:21.463Z,25.20
2019-05-30T04:41:50.848Z,25.22
2019-05-30T04:44:20.642Z,25.47
2019-05-30T04:46:50.288Z,25.64
2019-05-30T04:49:21.626Z,25.98
2019-05-30T04:51:50.892Z,26.36
2019-05-30T04:54:21.429Z,26.37
2019-05-30T04:56:51.075Z,26.28
2019-05-30T04:59:21.927Z,26.82
2019-05-30T05:01:51.752Z,26.97
2019-05-30T05:04:21.771Z,26.88
2019-05-30T05:06:51.525Z,27.15
2019-05-30T05:09:22.365Z,26.90
2019-05-30T05:11:51.920Z,27.17
2019-05-30T05:14:22.774Z,27.04
2019-05-30T05:16:52.584Z,27.05
2019-05-30T05:19:24.950Z,27.20
2019-05-30T05:21:53.212Z,26.98
2019-05-30T05:24:23.634Z,26.97
2019-05-30T05:26:53.231Z,26.77
2019-05-30T05:29:23.799Z,27.07
2019-05-30T05:31:53.821Z,26.88
2019-05-30T05:34:23.179Z,26.92
2019-05-30T05:36:52.595Z,26.79
2019-05-30T05:39:22.305Z,26.87
2019-05-30T05:41:51.930Z,26.73
2019-05-30T05:44:22.371Z,26.71
2019-05-30T05:46:51.774Z,26.59
2019-05-30T05:49:22.534Z,26.09
2019-05-30T05:51:52.179Z,25.91
2019-05-30T05:54:22.885Z,25.66
2019-05-30T05:56:52.382Z,25.68
2019-05-30T05:59:23.013Z,26.05
2019-05-30T06:01:52.530Z,26.52
2019-05-30T06:04:23.143Z,26.88
2019-05-30T06:06:52.794Z,27.21
2019-05-30T06:09:22.588Z,27.26
2019-05-30T06:11:52.103Z,26.68
2019-05-30T06:14:21.969Z,26.17
2019-05-30T06:16:51.545Z,25.83
2019-05-30T06:19:21.208Z,25.56
2019-05-30T06:21:54.129Z,25.32
2019-05-30T06:24:22.139Z,25.61
2019-05-30T06:26:51.640Z,25.64
2019-05-30T06:29:22.126Z,25.47
2019-05-30T06:31:51.571Z,25.48
2019-05-30T06:34:32.762Z,25.43
2019-05-30T06:36:52.297Z,25.15
2019-05-30T06:39:21.646Z,25.06
2019-05-30T06:41:51.133Z,25.12
2019-05-30T06:44:21.798Z,25.20
2019-05-30T06:46:51.321Z,25.32
2019-05-30T06:49:20.883Z,25.08
2019-05-30T06:51:50.415Z,25.11
2019-05-30T06:54:21.360Z,25.34
2019-05-30T06:56:50.976Z,25.45
2019-05-30T06:59:21.430Z,25.44
2019-05-30T07:01:52.246Z,25.42
2019-05-30T07:04:23.320Z,25.53
2019-05-30T07:06:53.136Z,25.61
2019-05-30T07:09:22.814Z,25.50
2019-05-30T07:11:52.381Z,25.55
2019-05-30T07:14:22.969Z,25.73
2019-05-30T07:16:52.439Z,25.91
2019-05-30T07:19:23.238Z,25.89
2019-05-30T07:21:52.925Z,25.71
2019-05-30T07:24:23.622Z,25.65
2019-05-30T07:26:53.404Z,25.59
2019-05-30T07:29:23.940Z,25.64
2019-05-30T07:31:53.361Z,25.86
2019-05-30T07:34:23.910Z,25.82
2019-05-30T07:36:53.514Z,25.84
2019-05-30T07:39:22.882Z,25.92
2019-05-30T07:42:05.808Z,25.87
2019-05-30T07:44:24.519Z,26.02
2019-05-30T07:46:54.068Z,26.23
2019-05-30T07:49:23.448Z,26.32
2019-05-30T07:51:52.899Z,26.25
2019-05-30T07:54:22.433Z,26.12
2019-05-30T07:56:51.905Z,26.12
2019-05-30T07:59:21.339Z,26.22
2019-05-30T08:01:51.551Z,26.31
2019-05-30T08:04:20.917Z,26.45
2019-05-30T08:06:50.317Z,26.48
2019-05-30T08:09:19.858Z,26.73
2019-05-30T08:11:49.922Z,26.67
2019-05-30T08:14:19.603Z,26.58
2019-05-30T08:16:48.968Z,26.47
2019-05-30T08:19:18.455Z,26.61
2019-05-30T08:21:47.991Z,26.83
2019-05-30T08:24:17.485Z,27.04
2019-05-30T08:26:46.836Z,27.22
2019-05-30T08:29:16.408Z,27.28
2019-05-30T08:31:45.974Z,27.19
2019-05-30T08:34:15.328Z,27.14
2019-05-30T08:36:44.733Z,27.16
2019-05-30T08:39:14.317Z,27.22
2019-05-30T08:41:43.914Z,27.00
2019-05-30T08:44:13.387Z,27.22
2019-05-30T08:46:42.912Z,27.36
2019-05-30T08:49:12.886Z,27.58
2019-05-30T08:51:42.363Z,27.75
2019-05-30T08:54:13.962Z,27.73
2019-05-30T08:56:42.878Z,27.76
2019-05-30T08:59:12.357Z,27.69
2019-05-30T09:01:42.260Z,27.70
2019-05-30T09:04:11.788Z,27.86
2019-05-30T09:06:42.011Z,27.99
2019-05-30T09:09:11.998Z,28.16
2019-05-30T09:11:42.325Z,28.10
2019-05-30T09:14:11.821Z,28.27
2019-05-30T09:16:41.622Z,28.42
2019-05-30T09:19:11.510Z,28.63
2019-05-30T09:21:41.446Z,28.83
2019-05-30T09:24:11.074Z,28.83
2019-05-30T09:26:45.489Z,28.68
2019-05-30T09:29:12.198Z,28.55
2019-05-30T09:31:42.806Z,28.37
2019-05-30T09:34:13.674Z,28.50
2019-05-30T09:36:43.147Z,28.04
2019-05-30T09:39:12.602Z,28.35
2019-05-30T09:41:42.226Z,28.53
2019-05-30T09:44:12.936Z,28.67
2019-05-30T09:46:42.602Z,28.88
2019-05-30T09:49:12.049Z,28.85
2019-05-30T09:51:42.547Z,28.61
2019-05-30T09:54:12.680Z,28.73
2019-05-30T09:56:43.353Z,28.84
2019-05-30T09:59:13.287Z,28.78
2019-05-30T10:01:44.245Z,28.93
2019-05-30T10:04:13.808Z,29.07
2019-05-30T10:06:43.613Z,29.29
2019-05-30T10:09:14.013Z,29.39
2019-05-30T10:11:44.492Z,29.36
2019-05-30T10:14:14.644Z,29.21
2019-05-30T10:16:47.880Z,29.42
2019-05-30T10:19:15.306Z,29.50
2019-05-30T10:21:45.960Z,29.74
2019-05-30T10:24:15.874Z,29.65
2019-05-30T10:26:46.130Z,29.83
2019-05-30T10:29:16.602Z,29.70
2019-05-30T10:31:46.505Z,29.71
2019-05-30T10:34:16.056Z,29.42
2019-05-30T10:36:47.226Z,29.88
2019-05-30T10:39:16.790Z,30.35
2019-05-30T10:41:47.478Z,30.41
2019-05-30T10:44:17.110Z,30.41
2019-05-30T10:46:47.569Z,30.54
2019-05-30T10:49:31.516Z,30.77
2019-05-30T10:51:49.624Z,30.92
2019-05-30T10:54:19.248Z,31.33
2019-05-30T10:56:49.975Z,31.67
2019-05-30T10:59:19.442Z,31.81
2019-05-30T11:01:50.228Z,32.07
2019-05-30T11:04:19.962Z,32.15
2019-05-30T11:07:18.807Z,31.95
2019-05-30T11:09:52.868Z,31.44
2019-05-30T11:12:22.262Z,31.28
2019-05-30T11:14:51.777Z,31.15
2019-05-30T11:17:21.222Z,30.96
2019-05-30T11:19:51.762Z,31.33
2019-05-30T11:22:21.620Z,31.53
2019-05-30T11:24:52.625Z,31.65
2019-05-30T11:27:22.252Z,31.63
2019-05-30T11:29:52.884Z,30.92
2019-05-30T11:32:22.622Z,30.96
2019-05-30T11:34:53.063Z,31.08
2019-05-30T11:37:22.632Z,30.80
2019-05-30T11:39:53.252Z,30.58
2019-05-30T11:42:22.693Z,30.22
2019-05-30T11:44:52.057Z,30.27
2019-05-30T11:47:21.494Z,30.66
2019-05-30T11:49:51.615Z,30.88
2019-05-30T11:52:21.193Z,30.76
2019-05-30T11:54:51.972Z,30.50
2019-05-30T11:57:21.524Z,30.86
2019-05-30T11:59:52.147Z,31.11
2019-05-30T12:02:21.729Z,31.32
2019-05-30T12:04:52.487Z,31.42
2019-05-30T12:07:35.442Z,31.55
2019-05-30T12:09:53.198Z,31.46
2019-05-30T12:12:22.655Z,30.95
2019-05-30T12:14:53.316Z,30.91
2019-05-30T12:17:22.975Z,30.86
2019-05-30T12:19:53.401Z,30.43
2019-05-30T12:22:22.856Z,30.32
2019-05-30T12:24:53.779Z,30.33
2019-05-30T12:27:23.406Z,30.47
2019-05-30T12:29:54.011Z,30.47
2019-05-30T12:32:23.540Z,30.32
2019-05-30T12:34:54.280Z,30.48
2019-05-30T12:37:23.855Z,30.52
2019-05-30T12:39:54.465Z,30.30
2019-05-30T12:42:24.048Z,30.58
2019-05-30T12:44:53.380Z,30.93
2019-05-30T12:47:22.890Z,31.17
2019-05-30T12:49:53.264Z,31.12
2019-05-30T12:52:22.868Z,31.24
2019-05-30T12:54:52.272Z,31.31
2019-05-30T12:57:21.649Z,31.51
2019-05-30T12:59:51.170Z,31.57
2019-05-30T13:02:20.643Z,30.74
2019-05-30T13:04:49.998Z,30.29
2019-05-30T13:07:19.376Z,30.14
2019-05-30T13:09:48.977Z,30.50
2019-05-30T13:12:18.436Z,30.85
2019-05-30T13:14:47.807Z,30.84
2019-05-30T13:17:17.335Z,30.71
2019-05-30T13:19:46.912Z,30.81
2019-05-30T13:22:16.319Z,30.50
2019-05-30T13:24:45.830Z,30.46
2019-05-30T13:27:15.323Z,30.01
2019-05-30T13:29:44.678Z,30.38
2019-05-30T13:32:14.085Z,30.46
2019-05-30T13:34:43.576Z,30.41
2019-05-30T13:37:13.146Z,30.36
2019-05-30T13:39:42.535Z,30.31
2019-05-30T13:42:11.902Z,30.18
2019-05-30T13:44:41.448Z,29.88
2019-05-30T13:47:11.095Z,30.21
2019-05-30T13:49:40.449Z,30.48
2019-05-30T13:52:09.968Z,30.07
2019-05-30T13:54:39.647Z,29.88
2019-05-30T13:57:09.773Z,29.65
2019-05-30T13:59:39.222Z,29.70
2019-05-30T14:02:08.710Z,29.73
2019-05-30T14:04:38.216Z,29.92
2019-05-30T14:07:08.482Z,30.04
2019-05-30T14:09:37.911Z,30.22
2019-05-30T14:12:07.273Z,30.10
2019-05-30T14:14:36.732Z,30.17
2019-05-30T14:17:09.518Z,30.49
2019-05-30T14:19:37.342Z,30.58
2019-05-30T14:22:07.261Z,30.58
2019-05-30T14:24:36.864Z,30.52
2019-05-30T14:27:07.540Z,30.68
2019-05-30T14:29:36.979Z,30.51
2019-05-30T14:32:06.388Z,30.60
2019-05-30T14:34:35.853Z,30.76
2019-05-30T14:37:06.393Z,30.76
2019-05-30T14:39:35.903Z,30.72
2019-05-30T14:42:05.410Z,30.66
2019-05-30T14:44:34.764Z,30.02
2019-05-30T14:47:04.316Z,29.93
2019-05-30T14:49:33.823Z,30.33
2019-05-30T14:52:04.537Z,30.36
2019-05-30T14:54:34.033Z,30.33
2019-05-30T14:57:03.425Z,30.10
2019-05-30T14:59:32.973Z,30.26
2019-05-30T15:02:02.491Z,30.41
2019-05-30T15:04:31.875Z,30.70
2019-05-30T15:07:01.321Z,31.03
2019-05-30T15:09:30.821Z,31.23
2019-05-30T15:12:00.260Z,31.15
2019-05-30T15:14:29.607Z,31.13
2019-05-30T15:16:59.015Z,31.25
2019-05-30T15:19:28.510Z,31.52
2019-05-30T15:21:57.889Z,31.79
2019-05-30T15:24:27.374Z,31.67
2019-05-30T15:26:56.924Z,31.68
2019-05-30T15:29:26.288Z,31.57
2019-05-30T15:31:55.705Z,31.06
2019-05-30T15:34:25.194Z,30.94
2019-05-30T15:36:54.617Z,30.35
2019-05-30T15:39:32.418Z,30.57
2019-05-30T15:41:55.165Z,30.34
2019-05-30T15:44:24.573Z,30.31
2019-05-30T15:46:54.077Z,30.17
2019-05-30T15:49:23.547Z,30.12
2019-05-30T15:51:52.917Z,29.92
2019-05-30T15:54:22.427Z,29.84
2019-05-30T15:56:51.871Z,29.58
2019-05-30T15:59:21.279Z,29.86
2019-05-30T16:01:50.768Z,29.73
2019-05-30T16:04:20.527Z,29.82
2019-05-30T16:06:49.985Z,30.05
2019-05-30T16:09:19.515Z,29.92
2019-05-30T16:11:48.978Z,30.15
2019-05-30T16:14:19.415Z,30.22
2019-05-30T16:16:48.860Z,29.91
2019-05-30T16:19:23.298Z,29.73
2019-05-30T16:21:49.586Z,29.68
2019-05-30T16:24:18.998Z,29.44
2019-05-30T16:26:48.394Z,29.50
2019-05-30T16:29:17.851Z,29.43
2019-05-30T16:31:47.380Z,29.43
2019-05-30T16:34:17.974Z,29.27
2019-05-30T16:36:47.513Z,29.29
2019-05-30T16:39:18.122Z,29.21
2019-05-30T16:41:47.609Z,29.18
2019-05-30T16:44:18.381Z,29.29
2019-05-30T16:46:48.679Z,29.15
2019-05-30T16:49:18.536Z,29.14
2019-05-30T16:51:48.006Z,28.98
2019-05-30T16:54:17.507Z,28.90
2019-05-30T16:56:47.048Z,28.94
2019-05-30T16:59:16.608Z,28.95
2019-05-30T17:01:56.436Z,28.89
2019-05-30T17:04:17.296Z,29.06
2019-05-30T17:06:46.778Z,28.75
2019-05-30T17:09:17.185Z,28.86
2019-05-30T17:11:46.562Z,28.85
2019-05-30T17:14:16.041Z,28.86
2019-05-30T17:16:45.546Z,28.79
2019-05-30T17:19:16.344Z,28.62
2019-05-30T17:21:46.077Z,28.57
2019-05-30T17:24:16.866Z,28.69
2019-05-30T17:26:46.346Z,28.59
2019-05-30T17:29:15.813Z,28.64
2019-05-30T17:31:45.359Z,28.64
2019-05-30T17:34:14.713Z,28.65
2019-05-30T17:36:44.094Z,28.72
2019-05-30T17:39:14.097Z,28.57
2019-05-30T17:41:43.549Z,28.17
2019-05-30T17:44:12.911Z,27.75
2019-05-30T17:46:42.462Z,27.25
2019-05-30T17:49:11.941Z,26.64
2019-05-30T17:51:42.818Z,25.16
2019-05-30T17:54:12.267Z,23.47
2019-05-30T17:56:41.677Z,21.80
2019-05-30T17:59:11.130Z,20.64
2019-05-30T18:01:40.710Z,19.80
2019-05-30T18:04:11.211Z,19.43
2019-05-30T18:06:40.697Z,19.26
2019-05-30T18:09:10.122Z,19.06
2019-05-30T18:11:39.982Z,18.92
2019-05-30T18:14:09.585Z,18.76
2019-05-30T18:16:40.463Z,18.76
2019-05-30T18:19:10.165Z,19.12
2019-05-30T18:21:39.777Z,19.12
2019-05-30T18:24:09.303Z,19.19
2019-05-30T18:26:38.794Z,19.30
2019-05-30T18:29:08.163Z,19.40
2019-05-30T18:31:37.608Z,19.46
2019-05-30T18:34:07.086Z,19.52
2019-05-30T18:36:39.253Z,19.57
2019-05-30T18:39:09.128Z,19.59
2019-05-30T18:41:38.597Z,19.62
2019-05-30T18:44:07.986Z,19.67
2019-05-30T18:46:38.683Z,19.70
2019-05-30T18:49:08.390Z,19.79
2019-05-30T18:51:37.868Z,19.87
2019-05-30T18:54:07.299Z,19.97
2019-05-30T18:56:37.015Z,19.98
2019-05-30T18:59:06.651Z,19.97
2019-05-30T19:01:37.771Z,19.94
2019-05-30T19:04:07.328Z,19.99
2019-05-30T19:06:36.748Z,20.08
2019-05-30T19:09:07.951Z,20.12
2019-05-30T19:11:38.467Z,20.10
2019-05-30T19:14:07.825Z,20.11
2019-05-30T19:16:37.279Z,20.07
2019-05-30T19:19:06.755Z,20.12
2019-05-30T19:21:36.282Z,20.21
2019-05-30T19:24:06.159Z,20.25
2019-05-30T19:26:36.731Z,20.12
2019-05-30T19:29:06.299Z,20.11
2019-05-30T19:31:36.961Z,20.05
2019-05-30T19:34:06.523Z,20.03
2019-05-30T19:36:35.914Z,20.08
2019-05-30T19:39:07.224Z,20.10
2019-05-30T19:41:53.413Z,20.19
2019-05-30T19:44:08.807Z,20.18
2019-05-30T19:46:38.447Z,20.20
2019-05-30T19:49:07.904Z,20.19
2019-05-30T19:51:37.376Z,20.31
2019-05-30T19:54:06.791Z,20.24
2019-05-30T19:56:38.967Z,20.27
2019-05-30T19:59:07.572Z,20.33
2019-05-30T20:01:38.012Z,20.40
2019-05-30T20:04:07.600Z,20.42
2019-05-30T20:06:37.063Z,20.45
2019-05-30T20:09:08.462Z,20.41
2019-05-30T20:11:39.007Z,20.43
2019-05-30T20:14:08.902Z,20.57
2019-05-30T20:16:39.831Z,20.44
2019-05-30T20:19:09.308Z,20.31
2019-05-30T20:21:39.845Z,20.27
2019-05-30T20:24:09.402Z,20.23
2019-05-30T20:26:38.865Z,20.23
2019-05-30T20:29:08.275Z,20.12
2019-05-30T20:31:37.706Z,20.13
2019-05-30T20:34:07.302Z,20.33
2019-05-30T20:36:36.776Z,20.36
2019-05-30T20:39:07.145Z,20.38
2019-05-30T20:41:36.905Z,20.41
2019-05-30T20:44:06.411Z,20.40
2019-05-30T20:46:36.959Z,20.36
2019-05-30T20:49:06.677Z,20.32
2019-05-30T20:51:37.180Z,20.32
2019-05-30T20:54:07.345Z,20.28
2019-05-30T20:56:37.360Z,20.17
2019-05-30T20:59:10.004Z,20.17
2019-05-30T21:01:38.198Z,20.22
2019-05-30T21:04:07.570Z,20.17
2019-05-30T21:06:38.719Z,20.19
2019-05-30T21:09:27.476Z,20.13
2019-05-30T21:11:44.341Z,20.18
2019-05-30T21:14:15.950Z,20.26
2019-05-30T21:16:49.197Z,20.30
2019-05-30T21:19:18.648Z,20.27
2019-05-30T21:21:48.088Z,20.29
2019-05-30T21:24:17.547Z,20.31
2019-05-30T21:26:47.049Z,20.23
2019-05-30T21:29:16.403Z,20.17
2019-05-30T21:31:46.323Z,20.15
2019-05-30T21:34:17.032Z,20.14
2019-05-30T21:36:46.590Z,20.15
2019-05-30T21:39:17.019Z,20.02
2019-05-30T21:41:46.429Z,19.99
2019-05-30T21:44:15.959Z,19.90
2019-05-30T21:46:46.665Z,19.72
2019-05-30T21:49:16.154Z,19.74
2019-05-30T21:51:45.574Z,19.55
2019-05-30T21:54:15.039Z,19.56
2019-05-30T21:56:45.884Z,19.76
2019-05-30T21:59:15.650Z,19.79
2019-05-30T22:01:46.549Z,19.70
2019-05-30T22:04:16.152Z,19.68
2019-05-30T22:06:45.569Z,19.71
2019-05-30T22:09:15.170Z,19.64
2019-05-30T22:11:45.572Z,19.71
2019-05-30T22:14:15.158Z,19.58
2019-05-30T22:16:45.912Z,19.49
2019-05-30T22:19:15.473Z,19.37
2019-05-30T22:21:46.116Z,19.41
2019-05-30T22:24:15.508Z,19.42
2019-05-30T22:26:46.353Z,19.54
2019-05-30T22:29:16.455Z,19.62
2019-05-30T22:31:46.585Z,19.68
2019-05-30T22:34:16.627Z,19.71
2019-05-30T22:36:49.206Z,19.58
2019-05-30T22:39:18.703Z,19.43
2019-05-30T22:41:48.084Z,19.32
2019-05-30T22:44:17.595Z,19.45
2019-05-30T22:46:48.089Z,19.30
2019-05-30T22:49:17.549Z,19.14
2019-05-30T22:51:47.142Z,19.21
2019-05-30T22:54:16.614Z,19.18
2019-05-30T22:56:47.244Z,19.13
2019-05-30T22:59:16.673Z,19.14
2019-05-30T23:01:46.951Z,19.13
2019-05-30T23:04:16.424Z,19.03
2019-05-30T23:06:46.311Z,18.91
2019-05-30T23:09:15.742Z,18.88
2019-05-30T23:11:45.583Z,18.91
2019-05-30T23:14:15.250Z,18.79
2019-05-30T23:16:46.048Z,18.78
2019-05-30T23:19:16.590Z,18.81
2019-05-30T23:21:46.802Z,18.68
2019-05-30T23:24:16.175Z,18.87
2019-05-30T23:26:45.668Z,18.83
2019-05-30T23:29:15.194Z,18.81
2019-05-30T23:31:44.671Z,18.67
2019-05-30T23:37:54.713Z,18.50
2019-05-30T23:40:24.451Z,18.44
2019-05-30T23:42:55.121Z,18.56
2019-05-30T23:45:24.760Z,18.66
2019-05-30T23:47:54.199Z,18.55
2019-05-30T23:50:23.796Z,18.48
2019-05-30T23:52:54.062Z,18.53
2019-05-30T23:55:23.632Z,18.57
2019-05-30T23:57:53.123Z,18.46
